KBLF/BLF METAR and TAF weather

Enter ICAO airport designator
Station Type Date Time Source
KBLF METAR 2020/06/06 18:52 UTC NOAA

KBLF 061852Z AUTO 27007KT 10SM SCT039 26/18 A3009 RMK AO2 SLP155 T02560178


Station Type Date Time Source
KBLF Decoded METAR 2020/06/06 18:52 UTC NOAA

BLUEFIELD MERCER COUNTY AIRPORT , WV, United States (KBLF) 37-18N 081-12W 873M
Jun 06, 2020 - 02:52 PM EDT / 2020.06.06 1852 UTC
Wind: from the W (270 degrees) at 8 MPH (7 KT):0
Visibility: 10 mile(s):0
Sky conditions: partly cloudy
Temperature: 78.1 F (25.6 C)
Dew Point: 64.0 F (17.8 C)
Relative Humidity: 62%
Pressure (altimeter): 30.09 in. Hg (1018 hPa)
ob: KBLF 061852Z AUTO 27007KT 10SM SCT039 26/18 A3009 RMK AO2 SLP155 T02560178
cycle: 19

Station Type Date Time Source
KBLF TAF 2020/06/06 18:22 UTC NOAA

TAF KBLF 061720Z 0618/0718 27006KT P6SM SCT026 BKN100
FM062000 30009G19KT P6SM SCT035
FM070000 28005KT P6SM FEW030
FM071000 VRB03KT 4SM BR FEW035
FM071400 VRB04KT P6SM FEW150

Example: see airport list